createdAt,value
2022-08-03T00:04:33.975Z,30.00
2022-08-03T00:09:37.876Z,29.42
2022-08-03T00:14:41.383Z,26.90
2022-08-03T00:19:46.952Z,28.52
2022-08-03T00:24:50.330Z,29.80
2022-08-03T00:29:59.717Z,29.90
2022-08-03T00:35:08.310Z,30.02
2022-08-03T00:40:14.743Z,30.27
2022-08-03T00:45:18.822Z,33.58
2022-08-03T00:50:24.960Z,30.92
2022-08-03T00:55:28.837Z,32.20
2022-08-03T01:00:32.515Z,32.13
2022-08-03T01:05:45.525Z,32.50
2022-08-03T01:11:02.265Z,37.00
2022-08-03T01:16:11.084Z,35.92
2022-08-03T01:21:20.941Z,35.95
2022-08-03T01:26:49.759Z,36.28
2022-08-03T01:32:59.770Z,41.17
2022-08-03T01:37:27.698Z,42.83
2022-08-03T01:42:33.791Z,40.17
2022-08-03T01:47:40.744Z,38.50
2022-08-03T01:52:45.219Z,42.05
2022-08-03T01:58:06.062Z,38.35
2022-08-03T02:03:14.310Z,40.28
2022-08-03T02:08:19.742Z,36.75
2022-08-03T02:13:25.524Z,39.45
2022-08-03T02:18:31.802Z,39.90
2022-08-03T02:23:35.222Z,43.95
2022-08-03T02:28:43.012Z,43.10
2022-08-03T02:33:53.337Z,40.35
2022-08-03T02:39:00.637Z,44.53
2022-08-03T02:44:08.462Z,45.13
2022-08-03T02:49:49.473Z,45.78
2022-08-03T02:54:40.653Z,41.92
2022-08-03T02:59:45.710Z,43.95
2022-08-03T03:05:51.586Z,43.83
2022-08-03T03:16:07.447Z,46.95
2022-08-03T03:21:13.745Z,45.90
2022-08-03T03:26:17.872Z,46.35
2022-08-03T03:31:21.293Z,41.90
2022-08-03T03:36:26.014Z,51.75
2022-08-03T03:41:29.482Z,42.55
2022-08-03T03:46:38.615Z,42.45
2022-08-03T03:51:43.347Z,43.42
2022-08-03T03:56:46.684Z,41.45
2022-08-03T04:01:59.269Z,41.85
2022-08-03T04:07:22.026Z,41.33
2022-08-03T04:12:28.118Z,40.35
2022-08-03T04:17:33.051Z,41.55
2022-08-03T04:22:39.817Z,42.10
2022-08-03T04:27:44.501Z,42.28
2022-08-03T04:33:08.910Z,48.40
2022-08-03T04:38:15.699Z,50.45
2022-08-03T04:43:20.531Z,44.78
2022-08-03T04:48:24.094Z,44.55
2022-08-03T04:53:29.007Z,40.95
2022-08-03T04:58:32.381Z,41.03
2022-08-03T05:03:35.880Z,40.38
2022-08-03T05:08:46.442Z,39.75
2022-08-03T05:13:52.046Z,40.75
2022-08-03T05:18:55.346Z,39.88
2022-08-03T05:24:00.079Z,35.63
2022-08-03T05:29:03.402Z,34.35
2022-08-03T05:34:06.749Z,35.10
2022-08-03T05:39:11.399Z,35.70
2022-08-03T05:44:14.702Z,32.47
2022-08-03T05:49:18.129Z,31.38
2022-08-03T05:54:23.837Z,29.55
2022-08-03T05:59:53.908Z,27.70
2022-08-03T06:05:01.452Z,27.20
2022-08-03T06:10:35.426Z,24.30
2022-08-03T06:15:33.371Z,20.67
2022-08-03T06:20:36.718Z,18.67
2022-08-03T06:25:42.785Z,15.27
2022-08-03T06:30:46.843Z,12.85
2022-08-03T06:35:53.206Z,14.80
2022-08-03T06:40:58.547Z,12.85
2022-08-03T06:46:02.422Z,12.02
2022-08-03T06:51:06.806Z,11.60
2022-08-03T06:56:11.761Z,13.20
2022-08-03T07:01:15.688Z,12.02
2022-08-03T07:06:22.332Z,10.50
2022-08-03T07:11:28.657Z,11.05
2022-08-03T07:16:32.154Z,10.77
2022-08-03T07:21:35.494Z,9.98
2022-08-03T07:26:40.383Z,9.45
2022-08-03T07:31:43.700Z,8.27
2022-08-03T07:36:47.161Z,7.22
2022-08-03T07:41:52.063Z,6.95
2022-08-03T07:46:55.457Z,7.90
2022-08-03T07:52:17.973Z,7.13
2022-08-03T07:57:22.917Z,7.47
2022-08-03T08:02:26.721Z,9.57
2022-08-03T08:07:30.081Z,9.80
2022-08-03T08:12:35.149Z,10.05
2022-08-03T08:17:46.056Z,9.85
2022-08-03T08:22:49.699Z,9.75
2022-08-03T08:28:29.786Z,9.55
2022-08-03T08:33:22.757Z,9.45
2022-08-03T08:38:27.391Z,8.85
2022-08-03T08:43:32.064Z,5.95
2022-08-03T08:48:41.609Z,6.85
2022-08-03T08:53:48.898Z,8.35
2022-08-03T08:58:58.110Z,8.23
2022-08-03T09:04:01.621Z,6.72
2022-08-03T09:09:07.184Z,12.90
2022-08-03T09:14:36.773Z,9.27
2022-08-03T09:19:36.401Z,8.30
2022-08-03T09:25:14.767Z,7.78
2022-08-03T09:30:33.620Z,10.00
2022-08-03T09:35:58.120Z,9.43
2022-08-03T09:41:01.569Z,7.63
2022-08-03T09:46:07.695Z,6.93
2022-08-03T09:51:32.903Z,7.80
2022-08-03T09:56:41.858Z,6.35
2022-08-03T10:01:46.703Z,6.18
2022-08-03T10:07:05.934Z,8.10
2022-08-03T10:12:10.856Z,6.68
2022-08-03T10:17:16.274Z,5.50
2022-08-03T10:22:22.903Z,6.15
2022-08-03T10:27:28.174Z,5.93
2022-08-03T10:32:36.298Z,5.47
2022-08-03T10:37:57.334Z,6.78
2022-08-03T10:43:10.632Z,6.38
2022-08-03T10:48:16.444Z,6.65
2022-08-03T10:53:36.421Z,6.40
2022-08-03T10:58:57.718Z,6.60
2022-08-03T11:04:19.899Z,6.30
2022-08-03T11:09:23.191Z,6.47
2022-08-03T11:14:26.532Z,7.10
2022-08-03T11:19:56.895Z,7.18
2022-08-03T11:25:01.898Z,6.60
2022-08-03T11:30:08.182Z,7.30
2022-08-03T11:35:15.197Z,6.18
2022-08-03T11:40:44.388Z,5.75
2022-08-03T11:45:58.678Z,5.53
2022-08-03T11:51:03.845Z,5.38
2022-08-03T11:56:13.021Z,5.50
2022-08-03T12:01:22.634Z,5.70
2022-08-03T12:06:27.863Z,5.47
2022-08-03T12:11:31.518Z,5.75
2022-08-03T12:16:34.957Z,5.82
2022-08-03T12:21:56.871Z,6.22
2022-08-03T12:27:00.922Z,6.10
2022-08-03T12:32:04.854Z,6.15
2022-08-03T12:37:22.076Z,6.80
2022-08-03T12:42:35.021Z,6.72
2022-08-03T12:47:51.271Z,7.00
2022-08-03T12:52:56.552Z,6.38
2022-08-03T12:57:59.995Z,8.10
2022-08-03T13:03:38.567Z,7.30
2022-08-03T13:08:30.823Z,7.45
2022-08-03T13:13:41.015Z,7.57
2022-08-03T13:18:46.586Z,8.15
2022-08-03T13:23:53.196Z,7.97
2022-08-03T13:28:56.815Z,7.78
2022-08-03T13:34:00.129Z,8.35
2022-08-03T13:39:05.150Z,6.85
2022-08-03T13:44:28.880Z,7.47
2022-08-03T13:49:33.299Z,7.35
2022-08-03T13:54:38.148Z,7.10
2022-08-03T13:59:47.356Z,8.07
2022-08-03T14:04:54.809Z,7.50
2022-08-03T14:09:59.487Z,8.23
2022-08-03T14:15:02.848Z,8.30
2022-08-03T14:20:25.978Z,8.32
2022-08-03T14:25:50.044Z,9.20
2022-08-03T14:30:56.035Z,9.50
2022-08-03T14:35:59.614Z,8.32
2022-08-03T14:41:04.847Z,7.97
2022-08-03T14:46:08.258Z,8.27
2022-08-03T14:51:11.703Z,8.50
2022-08-03T14:56:16.589Z,8.23
2022-08-03T15:02:06.488Z,8.07
2022-08-03T15:06:43.187Z,9.25
2022-08-03T15:11:50.761Z,8.48
2022-08-03T15:16:55.972Z,8.30
2022-08-03T15:22:00.948Z,7.93
2022-08-03T15:27:06.395Z,7.60
2022-08-03T15:32:09.944Z,7.88
2022-08-03T15:37:16.618Z,8.32
2022-08-03T15:42:21.515Z,7.75
2022-08-03T15:47:28.627Z,7.77
2022-08-03T15:52:32.216Z,8.32
2022-08-03T15:59:04.410Z,9.25
2022-08-03T16:03:01.441Z,8.35
2022-08-03T16:08:07.113Z,9.55
2022-08-03T16:13:15.185Z,9.07
2022-08-03T16:18:18.844Z,10.23
2022-08-03T16:23:22.191Z,10.38
2022-08-03T16:28:26.964Z,9.13
2022-08-03T16:33:30.293Z,9.88
2022-08-03T16:38:33.675Z,10.25
2022-08-03T16:43:38.375Z,10.15
2022-08-03T16:48:41.708Z,10.40
2022-08-03T16:54:07.385Z,9.63
2022-08-03T16:59:09.770Z,9.35
2022-08-03T17:04:15.315Z,9.77
2022-08-03T17:09:20.597Z,9.80
2022-08-03T17:14:29.258Z,9.57
2022-08-03T17:19:34.973Z,11.35
2022-08-03T17:24:42.232Z,10.75
2022-08-03T17:29:49.763Z,9.00
2022-08-03T17:34:53.483Z,10.23
2022-08-03T17:39:59.591Z,9.18
2022-08-03T17:45:06.616Z,9.55
2022-08-03T17:50:24.256Z,9.70
2022-08-03T17:55:57.535Z,8.93
2022-08-03T18:01:57.848Z,9.55
2022-08-03T18:06:56.330Z,9.60
2022-08-03T18:12:06.373Z,10.27
2022-08-03T18:17:22.989Z,9.38
2022-08-03T18:22:51.032Z,9.23
2022-08-03T18:27:55.484Z,12.20
2022-08-03T18:34:17.077Z,11.80
2022-08-03T18:38:26.855Z,11.18
2022-08-03T18:43:46.395Z,10.85
2022-08-03T18:49:01.017Z,11.20
2022-08-03T18:54:45.907Z,11.13
2022-08-03T18:59:47.408Z,11.50
2022-08-03T19:04:55.666Z,9.80
2022-08-03T19:10:05.914Z,11.67
2022-08-03T19:15:12.653Z,11.55
2022-08-03T19:20:20.407Z,10.80
2022-08-03T19:25:34.442Z,11.85
2022-08-03T19:30:40.799Z,12.55
2022-08-03T19:35:59.254Z,12.25
2022-08-03T19:41:05.765Z,11.57
2022-08-03T19:46:13.154Z,12.30
2022-08-03T19:51:58.444Z,11.38
2022-08-03T19:56:49.347Z,11.18
2022-08-03T20:01:52.703Z,11.13
2022-08-03T20:06:58.701Z,11.70
2022-08-03T20:12:02.304Z,10.93
2022-08-03T20:17:09.106Z,10.70
2022-08-03T20:22:14.307Z,10.32
2022-08-03T20:27:21.560Z,10.23
2022-08-03T20:32:34.491Z,10.45
2022-08-03T20:37:39.767Z,12.15
2022-08-03T20:42:45.417Z,11.38
2022-08-03T20:47:50.425Z,11.00
2022-08-03T20:52:56.227Z,11.27
2022-08-03T20:58:00.821Z,12.20
2022-08-03T21:03:06.938Z,9.50
2022-08-03T21:08:15.571Z,8.30
2022-08-03T21:13:24.955Z,8.63
2022-08-03T21:18:29.900Z,9.10
2022-08-03T21:23:48.766Z,9.25
2022-08-03T21:28:54.954Z,9.65
2022-08-03T21:34:01.450Z,8.57
2022-08-03T21:39:08.489Z,10.32
2022-08-03T21:44:11.992Z,8.93
2022-08-03T21:50:07.621Z,9.57
2022-08-03T21:54:45.796Z,9.40
2022-08-03T21:59:55.788Z,9.43
2022-08-03T22:10:07.388Z,10.32
2022-08-03T22:15:13.073Z,10.73
2022-08-03T22:20:16.550Z,10.25
2022-08-03T22:25:24.594Z,10.98
2022-08-03T22:30:28.248Z,10.52
2022-08-03T22:35:47.585Z,12.13
2022-08-03T22:40:54.074Z,11.40
2022-08-03T22:46:10.513Z,10.80
2022-08-03T22:51:17.306Z,10.60
2022-08-03T22:56:23.199Z,11.05
2022-08-03T23:01:28.884Z,10.57
2022-08-03T23:06:35.686Z,10.70
2022-08-03T23:11:45.226Z,11.00
2022-08-03T23:16:52.290Z,11.45
2022-08-03T23:22:02.644Z,11.52
2022-08-03T23:27:09.901Z,12.02
2022-08-03T23:32:14.670Z,12.77
2022-08-03T23:37:19.831Z,12.05
2022-08-03T23:42:24.917Z,12.65
2022-08-03T23:47:46.586Z,13.23
2022-08-03T23:53:01.950Z,13.38
2022-08-03T23:58:16.761Z,13.98
